Time;durP1;ratioP1;P1;durP2;ratioP2;P2;SDS_P1;SDS_P2;PMS_P1;PMS_P2;Temp;Humidity;BMP_temperature;BMP_pressure;BME280_temperature;BME280_humidity;BME280_pressure;Samples;Min_cycle;Max_cycle;Signal;HPM_P1;HPM_P2
2022/03/21 00:01:01;;;;;;;133.18;46.15;;;;;;;-1.24;51.28;102700.78;5110551;28;20023;-76
2022/03/21 00:03:28;;;;;;;119.47;43.30;;;;;;;-1.28;51.23;102689.41;5110701;28;20428;-76
2022/03/21 00:05:54;;;;;;;101.13;38.97;;;;;;;-1.31;51.57;102693.78;5106626;28;20414;-75
2022/03/21 00:08:22;;;;;;;121.78;40.90;;;;;;;-1.33;51.09;102700.81;5110419;28;20149;-76
2022/03/21 00:10:49;;;;;;;105.55;38.50;;;;;;;-1.35;51.44;102698.16;5110525;28;20030;-75
2022/03/21 00:13:15;;;;;;;100.15;38.83;;;;;;;-1.41;50.98;102692.06;5110258;28;20457;-76
2022/03/21 00:15:45;;;;;;;90.25;36.25;;;;;;;-1.43;51.43;102699.94;5110357;28;20020;-76
2022/03/21 00:18:13;;;;;;;94.68;36.03;;;;;;;-1.47;51.50;102694.69;5110066;28;20395;-76
2022/03/21 00:20:43;;;;;;;101.07;34.13;;;;;;;-1.58;51.84;102678.91;5110519;28;20027;-76
2022/03/21 00:23:09;;;;;;;81.90;31.70;;;;;;;-1.66;51.91;102658.75;5110267;28;20157;-76
2022/03/21 00:25:35;;;;;;;84.40;31.23;;;;;;;-1.57;51.97;102682.41;5108979;28;20130;-76
2022/03/21 00:28:01;;;;;;;83.80;32.03;;;;;;;-1.60;51.97;102682.41;5107503;28;20039;-76
2022/03/21 00:30:27;;;;;;;85.40;34.15;;;;;;;-1.69;51.51;102670.16;5108750;28;20035;-76
2022/03/21 00:32:53;;;;;;;90.95;35.42;;;;;;;-1.69;52.13;102679.78;5110184;28;20076;-76
2022/03/21 00:35:19;;;;;;;93.43;34.58;;;;;;;-1.66;52.13;102687.69;5112757;28;20035;-76
2022/03/21 00:37:45;;;;;;;88.13;34.30;;;;;;;-1.63;51.90;102696.47;5114168;28;20483;-76
2022/03/21 00:40:13;;;;;;;89.35;35.17;;;;;;;-1.71;51.86;102694.72;5113834;27;20023;-75
2022/03/21 00:42:40;;;;;;;85.85;33.20;;;;;;;-1.79;51.34;102685.91;5112984;28;20719;-76
2022/03/21 00:45:09;;;;;;;72.35;30.90;;;;;;;-1.79;52.04;102688.56;5113817;28;20039;-76
2022/03/21 00:47:35;;;;;;;79.10;32.88;;;;;;;-1.89;51.58;102671.03;5114026;28;20028;-76
2022/03/21 00:50:00;;;;;;;85.38;32.30;;;;;;;-1.80;51.70;102695.59;5113699;28;20035;-76
2022/03/21 00:52:26;;;;;;;75.63;31.52;;;;;;;-1.82;51.30;102694.69;5114036;27;20546;-76
2022/03/21 00:54:51;;;;;;;88.05;35.08;;;;;;;-1.90;51.62;102675.44;5112729;28;20020;-76
2022/03/21 00:57:17;;;;;;;96.22;39.03;;;;;;;-1.88;52.79;102689.44;5113623;28;20027;-76
2022/03/21 00:59:42;;;;;;;98.25;37.50;;;;;;;-1.95;52.43;102681.53;5112559;28;20053;-76
2022/03/21 01:02:12;;;;;;;95.30;36.90;;;;;;;-2.02;52.73;102675.41;5112397;28;20122;-76
2022/03/21 01:04:38;;;;;;;88.00;34.15;;;;;;;-1.96;52.75;102679.78;5111553;28;20076;-76
2022/03/21 01:07:03;;;;;;;82.93;32.72;;;;;;;-1.92;52.65;102676.28;5112188;28;21162;-76
2022/03/21 01:09:29;;;;;;;79.00;31.15;;;;;;;-1.96;51.87;102682.41;5112234;28;20035;-76
2022/03/21 01:11:54;;;;;;;81.78;33.08;;;;;;;-1.99;52.10;102678.03;5113507;28;20047;-76
2022/03/21 01:14:20;;;;;;;93.72;36.15;;;;;;;-2.05;51.99;102671.88;5113290;28;20032;-76
2022/03/21 01:16:46;;;;;;;103.10;35.47;;;;;;;-2.08;53.00;102675.41;5113508;28;20035;-76
2022/03/21 01:19:12;;;;;;;94.97;34.85;;;;;;;-2.11;52.71;102663.97;5111999;28;20019;-76
2022/03/21 01:21:37;;;;;;;86.43;34.58;;;;;;;-2.15;52.04;102657.88;5112154;28;20057;-76
2022/03/21 01:24:03;;;;;;;76.97;32.72;;;;;;;-2.17;52.21;102649.09;5111905;28;20028;-76
2022/03/21 01:26:29;;;;;;;80.38;32.80;;;;;;;-2.12;52.21;102667.50;5111797;28;20154;-76
2022/03/21 01:28:56;;;;;;;86.05;33.00;;;;;;;-2.19;52.39;102660.47;5112968;28;20538;-76
2022/03/21 01:31:22;;;;;;;85.22;32.58;;;;;;;-2.17;52.27;102664.84;5113094;28;20035;-76
2022/03/21 01:33:47;;;;;;;93.82;35.53;;;;;;;-2.18;53.39;102656.97;5111868;28;20042;-76
2022/03/21 01:36:13;;;;;;;90.63;34.83;;;;;;;-2.18;53.29;102664.84;5111513;28;20093;-74
2022/03/21 01:38:38;;;;;;;82.63;34.75;;;;;;;-2.24;52.66;102654.31;5112931;28;20374;-73
2022/03/21 01:41:04;;;;;;;91.75;36.03;;;;;;;-2.25;52.70;102665.72;5112415;28;20038;-71
2022/03/21 01:43:29;;;;;;;76.57;32.28;;;;;;;-2.28;52.64;102667.47;5112605;28;20112;-71
2022/03/21 01:45:55;;;;;;;87.95;35.28;;;;;;;-2.26;52.73;102666.63;5112567;28;20034;-73
2022/03/21 01:48:20;;;;;;;82.35;33.13;;;;;;;-2.39;53.03;102652.56;5112575;28;20019;-71
2022/03/21 01:50:46;;;;;;;74.35;29.90;;;;;;;-2.43;52.93;102653.44;5112571;28;20039;-71
2022/03/21 01:55:57;;;;;;;71.30;30.83;;;;;;;-2.38;53.26;102673.56;5111034;28;20031;-71
2022/03/21 01:58:25;;;;;;;82.78;31.23;;;;;;;-2.40;53.27;102674.44;5112135;28;20028;-71
2022/03/21 02:00:51;;;;;;;79.63;32.38;;;;;;;-2.41;53.17;102678.81;5110195;28;20886;-71
2022/03/21 02:03:21;;;;;;;77.65;32.30;;;;;;;-2.52;53.32;102658.66;5112431;28;20102;-71
2022/03/21 02:05:47;;;;;;;80.88;32.42;;;;;;;-2.45;53.79;102678.84;5110875;28;20057;-72
2022/03/21 02:08:13;;;;;;;81.75;33.25;;;;;;;-2.54;53.35;102663.03;5111627;28;20112;-72
2022/03/21 02:10:42;;;;;;;88.97;33.30;;;;;;;-2.57;53.05;102663.91;5112222;28;20032;-72
2022/03/21 02:13:09;;;;;;;81.88;34.28;;;;;;;-2.54;52.76;102678.81;5109302;28;20079;-72
2022/03/21 02:15:35;;;;;;;94.78;36.35;;;;;;;-2.54;53.10;102677.03;5109628;28;20024;-72
2022/03/21 02:18:02;;;;;;;102.07;36.53;;;;;;;-2.61;53.34;102670.00;5109798;28;20624;-72
2022/03/21 02:20:34;;;;;;;104.60;38.63;;;;;;;-2.64;53.18;102661.25;5110286;28;20028;-72
2022/03/21 02:23:53;;;;;;;115.95;37.25;;;;;;;-2.73;52.86;102655.97;5109674;28;20043;-72
2022/03/21 02:26:20;;;;;;;94.80;36.83;;;;;;;-2.71;52.83;102665.59;5030109;28;20053;-72
2022/03/21 02:28:47;;;;;;;111.57;39.80;;;;;;;-2.70;53.46;102666.50;5048419;28;20067;-72
2022/03/21 02:31:15;;;;;;;107.45;38.80;;;;;;;-2.71;53.75;102672.63;5083901;28;20039;-72
2022/03/21 02:33:41;;;;;;;91.47;36.28;;;;;;;-2.75;53.47;102661.22;5110695;28;20059;-72
2022/03/21 02:36:08;;;;;;;106.13;38.17;;;;;;;-2.80;54.02;102659.44;5111162;28;20430;-73
2022/03/21 02:38:34;;;;;;;93.95;33.22;;;;;;;-2.82;53.70;102656.81;5110802;28;20037;-72
2022/03/21 02:41:01;;;;;;;91.63;34.28;;;;;;;-2.87;53.45;102653.28;5110557;28;20491;-72
2022/03/21 02:43:26;;;;;;;92.00;35.03;;;;;;;-2.87;53.61;102653.28;5107610;28;20039;-72
2022/03/21 02:45:52;;;;;;;98.75;35.08;;;;;;;-2.86;54.52;102665.56;5110857;28;20090;-72
2022/03/21 02:48:19;;;;;;;109.03;36.53;;;;;;;-2.82;53.90;102680.44;5111326;28;20087;-72
2022/03/21 02:51:00;;;;;;;101.88;36.97;;;;;;;-2.93;54.12;102655.88;5109924;28;20035;-72
2022/03/21 02:53:29;;;;;;;93.32;33.40;;;;;;;-2.93;53.88;102660.28;5109047;28;20047;-72
2022/03/21 02:55:55;;;;;;;95.07;33.60;;;;;;;-2.92;54.04;102662.91;5110808;28;20111;-72
2022/03/21 02:58:20;;;;;;;89.82;32.15;;;;;;;-2.91;54.08;102671.63;5110860;28;20027;-72
2022/03/21 03:00:46;;;;;;;92.97;33.95;;;;;;;-3.00;54.17;102661.13;5111155;27;20034;-72
2022/03/21 03:03:11;;;;;;;88.00;32.58;;;;;;;-2.95;54.33;102670.75;5111027;28;20062;-72
2022/03/21 03:05:37;;;;;;;99.13;31.73;;;;;;;-3.05;53.96;102658.47;5109960;28;20032;-71
2022/03/21 03:08:03;;;;;;;95.15;31.92;;;;;;;-3.03;54.63;102661.97;5109482;28;20019;-72
2022/03/21 03:10:29;;;;;;;113.72;36.30;;;;;;;-3.12;54.47;102646.19;5110950;28;20086;-72
2022/03/21 03:12:55;;;;;;;114.10;38.03;;;;;;;-3.09;54.57;102654.06;5110576;28;20027;-72
2022/03/21 03:15:20;;;;;;;116.30;37.72;;;;;;;-3.04;54.78;102675.06;5109235;28;20019;-72
2022/03/21 03:17:46;;;;;;;93.32;34.35;;;;;;;-3.15;54.56;102651.44;5110896;28;20031;-72
2022/03/21 03:20:11;;;;;;;101.80;34.55;;;;;;;-3.09;54.44;102661.06;5110641;28;20023;-72
2022/03/21 03:22:38;;;;;;;90.93;32.05;;;;;;;-3.08;53.85;102662.81;5110953;28;20027;-73
2022/03/21 03:25:05;;;;;;;93.70;30.20;;;;;;;-3.15;54.13;102659.31;5108964;28;20030;-71
2022/03/21 03:27:33;;;;;;;77.38;29.27;;;;;;;-3.17;54.23;102652.25;5110398;28;20069;-72
2022/03/21 03:30:00;;;;;;;82.13;29.50;;;;;;;-3.12;53.93;102666.31;5110211;28;20055;-72
2022/03/21 03:32:27;;;;;;;65.07;27.65;;;;;;;-3.26;53.96;102649.63;5109521;28;20127;-74
2022/03/21 03:34:53;;;;;;;62.33;26.27;;;;;;;-3.21;53.59;102661.88;5110855;28;20023;-72
2022/03/21 03:37:19;;;;;;;62.20;26.70;;;;;;;-3.17;54.00;102668.91;5110140;28;20501;-72
2022/03/21 03:39:44;;;;;;;61.42;25.27;;;;;;;-3.22;53.44;102659.25;5110470;28;20169;-72
2022/03/21 03:42:10;;;;;;;67.82;25.23;;;;;;;-3.28;53.91;102652.22;5110117;28;20038;-72
2022/03/21 03:44:36;;;;;;;60.42;25.45;;;;;;;-3.18;54.30;102675.03;5110327;28;20016;-72
2022/03/21 03:47:02;;;;;;;60.95;25.25;;;;;;;-3.19;53.85;102668.00;5110026;28;20510;-72
2022/03/21 03:49:28;;;;;;;64.47;26.63;;;;;;;-3.25;54.01;102667.09;5110412;28;20430;-72
2022/03/21 03:51:53;;;;;;;73.13;28.63;;;;;;;-3.18;54.80;102692.50;5110233;28;20030;-72
2022/03/21 03:54:19;;;;;;;64.50;28.90;;;;;;;-3.27;55.19;102674.06;5110140;28;20490;-73
2022/03/21 03:56:44;;;;;;;69.72;29.80;;;;;;;-3.28;54.92;102665.34;5110174;28;20019;-72
2022/03/21 03:59:10;;;;;;;65.40;26.88;;;;;;;-3.27;54.60;102677.59;5109719;28;20034;-71
2022/03/21 04:01:37;;;;;;;71.20;30.02;;;;;;;-3.23;54.41;102681.09;5110112;28;20039;-75
2022/03/21 04:04:03;;;;;;;66.50;27.63;;;;;;;-3.24;55.27;102687.22;5108954;28;20027;-74
2022/03/21 04:06:29;;;;;;;79.63;29.70;;;;;;;-3.37;55.04;102665.28;5110458;28;20030;-75
2022/03/21 04:08:54;;;;;;;71.22;30.92;;;;;;;-3.28;54.45;102681.09;5111641;28;20023;-75
2022/03/21 04:11:20;;;;;;;68.45;28.77;;;;;;;-3.31;54.55;102677.56;5113524;28;20039;-74
2022/03/21 04:13:46;;;;;;;64.88;26.25;;;;;;;-3.29;54.41;102684.56;5114870;28;20094;-74
2022/03/21 04:16:14;;;;;;;70.38;27.08;;;;;;;-3.33;54.45;102668.78;5114321;28;20386;-72
2022/03/21 04:18:39;;;;;;;65.47;26.60;;;;;;;-3.33;54.32;102661.81;5114405;28;20031;-72
2022/03/21 04:21:05;;;;;;;73.25;27.52;;;;;;;-3.40;54.23;102648.63;5114121;28;20596;-72
2022/03/21 04:23:31;;;;;;;68.18;25.73;;;;;;;-3.23;54.32;102678.47;5112675;28;20023;-72
2022/03/21 04:25:56;;;;;;;78.88;27.15;;;;;;;-3.22;53.93;102675.84;5113705;28;20130;-72
2022/03/21 04:28:22;;;;;;;70.30;25.27;;;;;;;-3.23;53.30;102667.97;5112577;28;20015;-72
2022/03/21 04:30:47;;;;;;;72.60;25.98;;;;;;;-3.21;53.52;102669.75;5114070;28;20857;-72
2022/03/21 04:33:12;;;;;;;73.00;23.00;;;;;;;-3.13;53.66;102680.31;5112253;28;20023;-73
2022/03/21 04:35:39;;;;;;;71.45;26.42;;;;;;;-3.07;53.27;102685.56;5113992;28;20039;-72
2022/03/21 04:38:13;;;;;;;52.08;20.10;;;;;;;-3.10;53.00;102677.66;5112259;28;20039;-72
2022/03/21 04:40:40;;;;;;;51.22;20.63;;;;;;;-3.03;52.64;102682.97;5112501;28;20027;-73
2022/03/21 04:43:06;;;;;;;51.85;21.65;;;;;;;-2.92;53.07;102694.41;5113613;28;20028;-73
2022/03/21 04:45:32;;;;;;;57.10;22.05;;;;;;;-3.05;52.77;102668.09;5113859;28;20039;-73
2022/03/21 04:47:58;;;;;;;64.40;23.27;;;;;;;-2.94;53.02;102677.75;5113341;28;20030;-73
2022/03/21 04:50:24;;;;;;;53.60;21.33;;;;;;;-2.90;52.68;102681.28;5113454;28;20062;-73
2022/03/21 04:52:49;;;;;;;59.53;22.15;;;;;;;-2.85;52.98;102690.03;5112328;28;20023;-73
2022/03/21 04:55:15;;;;;;;51.58;19.63;;;;;;;-2.78;52.46;102695.34;5113382;28;20646;-73
2022/03/21 04:57:40;;;;;;;53.78;20.48;;;;;;;-2.73;52.67;102701.50;5111878;28;20023;-73
2022/03/21 05:00:06;;;;;;;53.72;19.58;;;;;;;-2.69;52.60;102702.38;5113314;28;20541;-73
2022/03/21 05:02:32;;;;;;;47.58;19.17;;;;;;;-2.65;52.47;102702.41;5113212;28;20032;-73
2022/03/21 05:04:57;;;;;;;41.85;18.00;;;;;;;-2.69;52.69;102684.88;5104886;27;20494;-73
2022/03/21 05:07:23;;;;;;;42.40;16.58;;;;;;;-2.65;52.52;102681.38;5107286;28;20038;-73
2022/03/21 05:09:48;;;;;;;40.17;18.05;;;;;;;-2.49;52.41;102692.81;5111431;28;20740;-73
2022/03/21 05:12:14;;;;;;;49.25;18.13;;;;;;;-2.43;52.91;102691.09;5111539;28;20035;-73
2022/03/21 05:14:40;;;;;;;41.63;18.23;;;;;;;-2.33;52.68;102704.25;5111530;28;20035;-73
2022/03/21 05:17:09;;;;;;;51.60;18.77;;;;;;;-2.30;52.87;102704.28;5111503;28;20024;-72
2022/03/21 05:19:35;;;;;;;45.33;18.15;;;;;;;-2.22;52.56;102702.53;5111409;28;20051;-73
2022/03/21 05:22:04;;;;;;;37.55;17.23;;;;;;;-2.19;52.84;102699.91;5110794;28;20549;-73
2022/03/21 05:32:44;;;;;;;39.25;17.77;;;;;;;-1.90;53.20;102712.25;5112091;28;20084;-73
2022/03/21 05:37:53;;;;;;;;;;;;;;;-1.80;52.53;102702.59;5112479;28;20104;-73
2022/03/21 05:40:41;;;;;;;41.08;17.30;;;;;;;-1.82;52.40;102693.81;5112209;28;19916;-72
2022/03/21 05:43:06;;;;;;;38.67;17.25;;;;;;;-1.72;52.64;102696.44;5111863;28;20050;-73
2022/03/21 05:45:32;;;;;;;34.78;17.45;;;;;;;-1.61;52.44;102693.81;5110478;28;20394;-73
2022/03/21 05:50:41;;;;;;;38.45;19.13;;;;;;;-1.39;52.38;102706.09;5111715;28;20049;-73
2022/03/21 05:53:08;;;;;;;36.83;17.95;;;;;;;-1.29;52.33;102702.56;5111702;28;20102;-73
2022/03/21 05:55:34;;;;;;;34.03;17.00;;;;;;;-1.27;52.48;102685.00;5116163;27;20103;-73
2022/03/21 05:58:00;;;;;;;39.75;17.52;;;;;;;-1.05;52.36;102702.50;5112117;27;20043;-71
2022/03/21 06:00:26;;;;;;;37.28;17.45;;;;;;;-1.05;52.74;102689.34;5111307;27;20513;-71
2022/03/21 06:02:53;;;;;;;35.97;18.05;;;;;;;-0.86;52.85;102698.94;5112500;27;20049;-71
2022/03/21 06:05:20;;;;;;;34.72;18.30;;;;;;;-0.71;52.59;102710.31;5112198;28;20062;-71
2022/03/21 06:07:46;;;;;;;33.63;17.73;;;;;;;-0.59;52.33;102706.75;5110763;28;20035;-71
2022/03/21 06:10:13;;;;;;;44.45;19.75;;;;;;;-0.41;51.96;102719.84;5108570;28;20028;-73
2022/03/21 06:12:39;;;;;;;41.72;19.00;;;;;;;-0.38;51.61;102690.84;5112004;28;20032;-71
2022/03/21 06:15:05;;;;;;;39.60;18.23;;;;;;;-0.11;51.34;102717.94;5110159;28;20092;-72
2022/03/21 06:17:36;;;;;;;39.05;19.08;;;;;;;-0.04;51.08;102689.72;5111747;28;20697;-72
2022/03/21 06:20:02;;;;;;;44.80;19.63;;;;;;;0.22;50.96;102708.03;5111592;28;20031;-72
2022/03/21 06:22:27;;;;;;;34.60;18.83;;;;;;;0.36;50.54;102699.13;5111819;28;20041;-72
2022/03/21 06:24:53;;;;;;;41.63;19.80;;;;;;;0.56;50.40;102701.56;5111970;28;20030;-73
2022/03/21 06:27:18;;;;;;;44.00;19.50;;;;;;;0.77;49.86;102709.31;5111266;28;20738;-72
2022/03/21 06:29:44;;;;;;;37.58;19.33;;;;;;;0.85;49.55;102692.50;5111614;28;20545;-72
2022/03/21 06:32:09;;;;;;;43.60;19.75;;;;;;;1.04;49.18;102699.34;5110661;28;20054;-72
2022/03/21 06:34:34;;;;;;;39.47;19.30;;;;;;;1.28;48.72;102708.72;5111459;28;20081;-72
2022/03/21 06:37:02;;;;;;;40.10;19.15;;;;;;;1.49;47.68;102719.91;5111160;27;20030;-72
2022/03/21 06:39:27;;;;;;;38.10;18.65;;;;;;;1.75;47.12;102730.19;5110050;28;20028;-72
2022/03/21 06:41:53;;;;;;;39.67;20.30;;;;;;;1.96;46.44;102727.22;5111486;28;20031;-73
2022/03/21 06:44:18;;;;;;;43.83;20.27;;;;;;;2.10;46.33;102717.34;5109573;28;20105;-73
2022/03/21 06:46:44;;;;;;;43.92;21.15;;;;;;;2.25;45.50;102710.03;5110183;28;20016;-72
2022/03/21 06:49:09;;;;;;;50.38;21.02;;;;;;;2.60;44.96;102732.41;5109800;28;20031;-72
2022/03/21 06:51:34;;;;;;;54.63;23.33;;;;;;;2.84;44.89;102732.84;5111142;28;20134;-72
2022/03/21 06:54:00;;;;;;;39.70;19.90;;;;;;;2.95;44.67;102716.75;5109573;28;20032;-73
2022/03/21 06:56:25;;;;;;;40.33;22.20;;;;;;;3.28;43.56;102737.34;5111415;28;20032;-73
2022/03/21 06:58:51;;;;;;;45.72;21.95;;;;;;;3.45;43.32;102729.94;5110999;28;20127;-73
2022/03/21 07:01:16;;;;;;;48.75;23.30;;;;;;;3.73;43.22;102739.06;5110754;28;20027;-73
2022/03/21 07:03:42;;;;;;;41.35;20.92;;;;;;;3.90;42.35;102721.00;5110337;28;20023;-73
2022/03/21 07:06:07;;;;;;;46.15;21.75;;;;;;;4.21;41.69;102736.19;5109412;28;20032;-72
2022/03/21 07:08:33;;;;;;;39.67;21.40;;;;;;;4.44;41.56;102728.56;5111048;28;20425;-73
2022/03/21 07:10:58;;;;;;;45.38;22.52;;;;;;;4.67;41.34;102720.88;5110868;28;20035;-72
2022/03/21 07:13:27;;;;;;;45.30;22.60;;;;;;;4.91;40.22;102724.69;5111061;28;20467;-72
2022/03/21 07:15:53;;;;;;;32.55;20.13;;;;;;;5.26;40.01;102734.38;5107700;28;20055;-75
2022/03/21 07:18:18;;;;;;;35.75;20.70;;;;;;;5.56;39.19;102741.50;5110861;28;20062;-75
2022/03/21 07:20:44;;;;;;;37.40;20.70;;;;;;;5.76;39.10;102745.34;5111050;28;20066;-74
2022/03/21 07:23:10;;;;;;;37.97;21.00;;;;;;;5.97;38.10;102747.38;5109148;28;20123;-73
2022/03/21 07:25:36;;;;;;;37.53;20.85;;;;;;;6.10;37.73;102745.25;5110447;28;20035;-73
2022/03/21 07:28:01;;;;;;;33.92;20.70;;;;;;;6.28;37.72;102734.88;5109895;28;20073;-73
2022/03/21 07:30:28;;;;;;;35.00;20.42;;;;;;;6.55;37.10;102743.78;5109412;28;20101;-73
2022/03/21 07:32:53;;;;;;;32.60;19.25;;;;;;;6.70;36.86;102730.81;5109876;27;20027;-73
2022/03/21 07:35:19;;;;;;;46.03;21.50;;;;;;;6.95;37.02;102741.50;5117115;27;20045;-73
2022/03/21 07:37:47;;;;;;;32.20;21.25;;;;;;;7.21;36.55;102745.94;5111234;28;20031;-73
2022/03/21 07:40:13;;;;;;;37.05;19.98;;;;;;;7.46;35.35;102749.47;5110080;28;20070;-73
2022/03/21 07:42:42;;;;;;;33.53;20.48;;;;;;;7.64;34.90;102749.66;5108892;28;20479;-73
2022/03/21 07:47:53;;;;;;;34.47;20.60;;;;;;;8.09;34.18;102747.91;5104640;28;20038;-73
2022/03/21 07:50:20;;;;;;;40.88;21.70;;;;;;;8.34;34.01;102748.72;5109801;28;20034;-73
2022/03/21 07:52:46;;;;;;;35.42;21.70;;;;;;;8.52;33.23;102737.28;5105029;28;20539;-74
2022/03/21 07:55:12;;;;;;;36.80;19.27;;;;;;;8.78;33.31;102722.84;5108714;28;20028;-73
2022/03/21 07:57:37;;;;;;;31.38;20.73;;;;;;;9.26;32.59;102732.28;5108951;28;20031;-73
2022/03/21 08:00:05;;;;;;;32.22;20.95;;;;;;;10.07;31.49;102743.78;5108558;28;20023;-73
2022/03/21 08:02:30;;;;;;;39.53;20.65;;;;;;;11.10;30.15;102734.13;5108595;28;20038;-73
2022/03/21 08:05:01;;;;;;;32.28;21.42;;;;;;;11.90;28.67;102735.19;5110243;28;20094;-73
2022/03/21 08:07:27;;;;;;;44.75;24.98;;;;;;;12.80;27.51;102728.13;5108696;28;20026;-73
2022/03/21 08:09:52;;;;;;;34.58;24.35;;;;;;;13.87;25.79;102734.13;5108473;28;20491;-73
2022/03/21 08:12:18;;;;;;;32.90;23.08;;;;;;;14.93;24.85;102729.72;5099947;28;20020;-73
2022/03/21 08:14:43;;;;;;;29.60;21.55;;;;;;;15.80;23.48;102722.69;5109342;28;20043;-73
2022/03/21 08:17:09;;;;;;;34.80;24.55;;;;;;;16.56;22.92;102723.41;5109173;28;20031;-73
2022/03/21 08:19:35;;;;;;;28.73;24.15;;;;;;;17.21;22.15;102713.81;5108310;28;20031;-73
2022/03/21 08:22:01;;;;;;;29.25;21.17;;;;;;;18.36;21.12;102727.13;5108613;28;20032;-74
2022/03/21 08:24:26;;;;;;;31.73;22.85;;;;;;;18.79;20.49;102718.00;5110716;28;20023;-73
2022/03/21 08:26:54;;;;;;;29.33;21.65;;;;;;;19.04;20.47;102706.78;5108874;28;20054;-73
2022/03/21 08:29:19;;;;;;;26.45;19.63;;;;;;;19.58;19.45;102702.00;5109219;28;20028;-73
2022/03/21 08:31:44;;;;;;;25.40;19.70;;;;;;;19.94;19.49;102711.50;5109483;28;20035;-73
2022/03/21 08:34:10;;;;;;;26.33;19.70;;;;;;;20.21;19.27;102705.50;5108084;28;20104;-73
2022/03/21 08:36:36;;;;;;;28.17;20.75;;;;;;;20.57;19.05;102699.38;5109336;28;20063;-74
2022/03/21 08:39:03;;;;;;;28.85;21.77;;;;;;;20.91;18.69;102700.69;5109004;28;20114;-75
2022/03/21 08:41:28;;;;;;;25.73;19.40;;;;;;;21.13;18.36;102703.16;5107557;28;20108;-76
2022/03/21 08:43:54;;;;;;;20.60;18.30;;;;;;;21.33;18.33;102688.47;5109583;28;20550;-75
2022/03/21 08:46:21;;;;;;;24.63;18.65;;;;;;;21.63;18.05;102697.31;5108096;28;20032;-76
2022/03/21 08:51:32;;;;;;;25.20;18.95;;;;;;;22.25;17.31;102692.03;5109902;28;20100;-75
2022/03/21 08:53:57;;;;;;;22.88;17.48;;;;;;;22.63;17.31;102701.03;5109879;28;20027;-75
2022/03/21 08:56:23;;;;;;;21.77;17.25;;;;;;;22.87;16.94;102691.19;5112640;28;20023;-75
2022/03/21 08:58:49;;;;;;;25.50;19.15;;;;;;;23.24;16.45;102696.47;5111809;28;20028;-75
2022/03/21 09:01:15;;;;;;;22.77;17.70;;;;;;;23.58;16.62;102695.56;5113247;28;20053;-75
2022/03/21 09:03:40;;;;;;;20.98;16.92;;;;;;;24.06;16.04;102684.03;5111998;28;20028;-76
2022/03/21 09:06:06;;;;;;;23.23;16.83;;;;;;;24.23;15.98;102675.69;5113306;28;20023;-75
2022/03/21 09:08:31;;;;;;;25.33;17.27;;;;;;;24.42;15.88;102680.91;5113366;28;20471;-75
2022/03/21 09:10:56;;;;;;;26.38;16.90;;;;;;;24.60;15.58;102677.16;5112788;28;20166;-75
2022/03/21 09:13:23;;;;;;;21.08;16.50;;;;;;;25.24;15.07;102678.09;5113036;28;20039;-75
2022/03/21 09:15:48;;;;;;;19.60;15.18;;;;;;;25.15;15.19;102670.03;5111663;28;20519;-76
2022/03/21 09:18:14;;;;;;;19.77;15.35;;;;;;;25.12;15.19;102667.63;5111641;28;20129;-75
2022/03/21 09:20:39;;;;;;;21.10;16.00;;;;;;;25.09;15.06;102662.47;5111941;28;20019;-75
2022/03/21 09:23:05;;;;;;;22.10;15.13;;;;;;;25.17;15.50;102665.19;5113120;28;20043;-76
2022/03/21 09:25:30;;;;;;;26.70;15.45;;;;;;;25.24;15.28;102658.84;5112406;28;20063;-76
2022/03/21 09:27:56;;;;;;;19.67;15.18;;;;;;;25.25;14.73;102660.59;5111670;28;20023;-76
2022/03/21 09:30:23;;;;;;;21.52;14.48;;;;;;;25.03;14.76;102657.66;5116719;28;20026;-74
2022/03/21 09:32:49;;;;;;;21.55;15.10;;;;;;;25.14;15.05;102647.19;5117897;28;20065;-75
2022/03/21 09:35:14;;;;;;;21.95;14.57;;;;;;;24.96;15.06;102652.00;5111844;28;20085;-75
2022/03/21 09:37:40;;;;;;;18.35;14.32;;;;;;;24.78;15.07;102665.03;5112460;28;20027;-75
2022/03/21 09:40:06;;;;;;;16.05;14.30;;;;;;;24.92;15.18;102658.84;5113238;28;20019;-76
2022/03/21 09:42:33;;;;;;;19.70;13.30;;;;;;;25.04;14.75;102656.63;5112102;28;20044;-75
2022/03/21 09:44:59;;;;;;;17.23;13.68;;;;;;;24.97;14.86;102648.22;5113377;28;20028;-76
2022/03/21 09:50:11;;;;;;;19.30;13.45;;;;;;;25.19;14.73;102641.16;5112540;28;20107;-74
2022/03/21 09:52:38;;;;;;;17.95;13.68;;;;;;;25.20;14.72;102627.25;5111490;28;20157;-74
2022/03/21 09:55:05;;;;;;;15.35;13.20;;;;;;;25.24;14.67;102645.09;5112250;28;20099;-74
2022/03/21 09:57:31;;;;;;;15.90;13.27;;;;;;;25.27;14.17;102638.41;5112374;28;20124;-73
2022/03/21 09:59:57;;;;;;;14.85;12.93;;;;;;;25.24;14.67;102639.63;5111169;28;20493;-74
2022/03/21 10:02:24;;;;;;;16.00;13.15;;;;;;;25.06;14.56;102629.84;5110813;28;20020;-74
2022/03/21 10:04:50;;;;;;;16.23;13.00;;;;;;;25.40;14.29;102617.63;5111080;28;20123;-74
2022/03/21 10:07:26;;;;;;;19.05;13.27;;;;;;;25.00;14.52;102638.78;5109442;28;20024;-74
2022/03/21 10:10:09;;;;;;;17.15;12.05;;;;;;;23.60;15.36;102624.16;5112224;27;20027;-74
2022/03/21 10:12:36;;;;;;;18.30;13.40;;;;;;;22.40;15.92;102610.31;5112492;28;20041;-74
2022/03/21 10:15:06;;;;;;;15.43;12.13;;;;;;;21.62;16.78;102624.56;5110853;28;20268;-74
2022/03/21 10:17:31;;;;;;;14.15;12.45;;;;;;;20.46;17.19;102610.38;5109726;28;20027;-74
2022/03/21 10:19:58;;;;;;;14.38;12.40;;;;;;;20.03;17.74;102616.16;5111822;28;20493;-73
2022/03/21 10:22:43;;;;;;;14.90;11.55;;;;;;;18.82;18.91;102625.28;5111861;28;20023;-73
2022/03/21 10:25:17;;;;;;;16.05;12.45;;;;;;;18.31;18.50;102610.66;5109589;28;20084;-73
2022/03/21 10:27:45;;;;;;;16.70;12.23;;;;;;;17.54;19.91;102616.25;5110737;28;20471;-73
2022/03/21 10:30:21;;;;;;;20.02;13.23;;;;;;;16.97;20.37;102627.13;5111540;28;20083;-73
2022/03/21 10:32:52;;;;;;;19.30;13.00;;;;;;;16.35;20.89;102597.66;5110794;28;20567;-74
2022/03/21 10:35:22;;;;;;;19.73;12.55;;;;;;;16.11;21.31;102615.75;5111565;28;20042;-74
2022/03/21 10:38:01;;;;;;;17.15;13.18;;;;;;;15.93;21.61;102610.72;5110127;28;20085;-74
2022/03/21 10:40:33;;;;;;;16.63;10.98;;;;;;;15.61;21.22;102598.69;5106462;28;20059;-73
2022/03/21 10:43:09;;;;;;;18.80;12.32;;;;;;;15.30;21.90;102592.88;5109275;28;20054;-74
2022/03/21 10:45:34;;;;;;;19.27;13.38;;;;;;;15.01;22.35;102597.63;5110146;28;20070;-74
2022/03/21 10:48:01;;;;;;;16.83;11.85;;;;;;;14.95;21.66;102605.31;5111376;28;20110;-74
2022/03/21 10:50:32;;;;;;;17.48;11.70;;;;;;;14.75;21.69;102597.72;5111297;28;20039;-73
2022/03/21 10:53:06;;;;;;;17.63;12.75;;;;;;;14.52;22.18;102582.22;5111387;28;20352;-73
2022/03/21 10:55:32;;;;;;;18.48;12.68;;;;;;;14.32;22.27;102588.97;5108821;28;20446;-74
2022/03/21 10:57:57;;;;;;;16.05;11.82;;;;;;;14.29;22.67;102580.22;5109902;28;20073;-74
2022/03/21 11:00:26;;;;;;;18.92;13.20;;;;;;;14.17;23.43;102594.50;5109617;28;20019;-73
2022/03/21 11:03:05;;;;;;;17.73;13.38;;;;;;;14.05;23.32;102582.69;5111296;28;20038;-73
2022/03/21 11:05:34;;;;;;;18.55;12.43;;;;;;;13.95;23.26;102586.97;5111235;28;20440;-73
2022/03/21 11:07:59;;;;;;;18.90;12.43;;;;;;;13.80;23.19;102571.78;5111373;28;20100;-73
2022/03/21 11:10:26;;;;;;;17.60;12.25;;;;;;;13.70;23.49;102559.88;5111155;28;20036;-74
2022/03/21 11:12:54;;;;;;;17.83;11.48;;;;;;;13.69;23.88;102574.31;5108772;28;20088;-74
2022/03/21 11:15:20;;;;;;;17.17;12.60;;;;;;;13.60;23.54;102569.53;5109399;28;20061;-74
2022/03/21 11:17:45;;;;;;;20.38;13.75;;;;;;;13.47;23.99;102560.50;5109261;28;20055;-75
2022/03/21 11:20:13;;;;;;;16.25;12.35;;;;;;;13.46;23.85;102564.16;5109256;28;20110;-73
2022/03/21 11:22:39;;;;;;;17.30;11.98;;;;;;;13.43;24.87;102561.66;5111123;28;20040;-74
2022/03/21 11:25:07;;;;;;;23.35;13.32;;;;;;;13.31;24.39;102546.25;5109507;28;20126;-73
2022/03/21 11:28:04;;;;;;;16.48;10.98;;;;;;;13.41;24.25;102560.88;5109835;28;20043;-74
2022/03/21 11:30:38;;;;;;;19.02;10.82;;;;;;;13.32;24.00;102556.09;5104462;28;20521;-73
2022/03/21 11:33:38;;;;;;;18.70;12.20;;;;;;;13.16;24.19;102553.50;5109400;28;20023;-74